Time;durP1;ratioP1;P1;durP2;ratioP2;P2;SDS_P1;SDS_P2;PMS_P1;PMS_P2;Temp;Humidity;BMP_temperature;BMP_pressure;BME280_temperature;BME280_humidity;BME280_pressure;Samples;Min_cycle;Max_cycle;Signal;HPM_P1;HPM_P2
2022/11/28 00:01:22;;;;;;;2.30;1.42;;;20.20;1.00;;;;;;4805023;29;20050;-58
2022/11/28 00:03:50;;;;;;;2.00;1.50;;;20.20;1.00;;;;;;4804983;29;20050;-58
2022/11/28 00:06:17;;;;;;;1.65;0.95;;;20.20;1.00;;;;;;4804948;29;20129;-58
2022/11/28 00:08:44;;;;;;;1.90;1.30;;;20.10;1.00;;;;;;4805149;29;20396;-58
2022/11/28 00:11:13;;;;;;;2.00;1.23;;;20.10;1.00;;;;;;4805003;29;20461;-58
2022/11/28 00:13:40;;;;;;;2.42;1.42;;;20.10;1.00;;;;;;4804774;29;20492;-58
2022/11/28 00:16:11;;;;;;;3.15;1.20;;;20.10;1.00;;;;;;4805054;29;20129;-57
2022/11/28 00:18:38;;;;;;;1.92;1.25;;;20.00;1.00;;;;;;4804990;29;20047;-58
2022/11/28 00:21:08;;;;;;;1.52;1.25;;;20.00;1.00;;;;;;4804857;29;20059;-58
2022/11/28 00:23:35;;;;;;;2.08;1.27;;;20.00;1.00;;;;;;4804769;29;20134;-58
2022/11/28 00:26:10;;;;;;;2.67;1.20;;;19.90;1.00;;;;;;4804888;29;20474;-58
2022/11/28 00:28:37;;;;;;;2.78;1.38;;;19.90;1.00;;;;;;4804823;29;20471;-58
2022/11/28 00:31:04;;;;;;;1.65;1.20;;;19.90;1.00;;;;;;4804748;29;20523;-58
2022/11/28 00:33:32;;;;;;;2.63;1.15;;;19.90;1.00;;;;;;4804661;29;20195;-58
2022/11/28 00:36:00;;;;;;;2.13;1.30;;;19.90;1.00;;;;;;4803714;29;20080;-57
2022/11/28 00:38:28;;;;;;;3.92;1.40;;;19.80;1.00;;;;;;4804648;29;20047;-58
2022/11/28 00:41:05;;;;;;;2.08;1.10;;;19.80;1.00;;;;;;4804527;29;20050;-58
2022/11/28 00:43:33;;;;;;;4.72;1.02;;;19.80;1.00;;;;;;4827789;24;20051;-59
2022/11/28 00:45:59;;;;;;;3.35;1.75;;;19.80;1.00;;;;;;4822711;29;20129;-59
2022/11/28 00:48:26;;;;;;;2.92;1.50;;;19.70;1.00;;;;;;4824956;29;20054;-59
2022/11/28 00:50:54;;;;;;;2.53;1.17;;;19.70;1.00;;;;;;4828766;29;20038;-60
2022/11/28 00:53:20;;;;;;;2.88;1.50;;;19.70;1.00;;;;;;4827365;29;20050;-59
2022/11/28 00:55:47;;;;;;;1.77;1.10;;;19.70;1.00;;;;;;4840297;29;20137;-59
2022/11/28 00:58:14;;;;;;;1.67;0.90;;;19.70;1.00;;;;;;4833280;29;20048;-59
2022/11/28 01:00:40;;;;;;;1.80;1.20;;;19.60;1.00;;;;;;4840127;29;20159;-59
2022/11/28 01:03:07;;;;;;;1.77;1.00;;;19.60;1.00;;;;;;4830246;29;20042;-60
2022/11/28 01:05:39;;;;;;;1.95;1.15;;;19.60;1.00;;;;;;4839409;29;20053;-59
2022/11/28 01:08:06;;;;;;;1.13;0.80;;;19.60;1.00;;;;;;4847021;29;20054;-59
2022/11/28 01:10:33;;;;;;;3.10;1.33;;;19.50;1.00;;;;;;4846893;29;20337;-60
2022/11/28 01:13:00;;;;;;;2.38;1.23;;;19.50;1.00;;;;;;4846554;29;20099;-59
2022/11/28 01:15:27;;;;;;;1.38;0.90;;;19.50;1.00;;;;;;4836101;29;20130;-59
2022/11/28 01:17:53;;;;;;;2.25;1.27;;;19.50;1.00;;;;;;4828753;29;20536;-59
2022/11/28 01:20:20;;;;;;;1.55;1.15;;;19.50;1.00;;;;;;4828518;29;20091;-60
2022/11/28 01:22:47;;;;;;;2.13;1.30;;;19.50;1.00;;;;;;4828216;29;20089;-60
2022/11/28 01:25:13;;;;;;;2.20;1.60;;;19.40;1.00;;;;;;4828680;29;20062;-60
2022/11/28 01:27:40;;;;;;;2.95;1.05;;;19.40;1.00;;;;;;4828373;29;20050;-60
2022/11/28 01:30:07;;;;;;;1.80;1.20;;;19.40;1.00;;;;;;4828407;29;20085;-60
2022/11/28 01:32:34;;;;;;;2.00;1.40;;;19.40;1.00;;;;;;4828220;29;20050;-60
2022/11/28 01:35:00;;;;;;;1.67;0.98;;;19.40;1.00;;;;;;4828510;29;20078;-60
2022/11/28 01:37:30;;;;;;;1.80;1.08;;;19.30;1.00;;;;;;4828421;29;20414;-60
2022/11/28 01:39:57;;;;;;;2.90;1.17;;;19.30;1.00;;;;;;4828366;29;20053;-59
2022/11/28 01:42:24;;;;;;;1.23;1.00;;;19.30;1.00;;;;;;4828073;29;20095;-60
2022/11/28 01:44:54;;;;;;;2.78;1.10;;;19.30;1.00;;;;;;4812321;29;20046;-59
2022/11/28 01:47:24;;;;;;;1.42;1.00;;;19.20;1.00;;;;;;4828371;29;20138;-60
2022/11/28 01:49:53;;;;;;;1.92;0.88;;;19.20;1.00;;;;;;4828355;29;20111;-60
2022/11/28 01:52:20;;;;;;;2.25;1.02;;;19.20;1.00;;;;;;4828014;29;20054;-60
2022/11/28 01:54:52;;;;;;;5.18;1.35;;;19.20;1.00;;;;;;4828402;29;20080;-60
2022/11/28 01:57:21;;;;;;;3.28;1.48;;;19.20;1.00;;;;;;4828286;29;20538;-60
2022/11/28 01:59:56;;;;;;;1.73;1.10;;;19.10;1.00;;;;;;4826842;29;20074;-60
2022/11/28 02:02:50;;;;;;;2.50;1.38;;;19.10;1.00;;;;;;4824939;29;20050;-60
2022/11/28 02:05:19;;;;;;;1.50;0.80;;;19.10;1.00;;;;;;4825220;29;20054;-59
2022/11/28 02:07:46;;;;;;;3.30;1.13;;;19.10;1.00;;;;;;4808938;29;20175;-60
2022/11/28 02:10:22;;;;;;;1.65;0.95;;;19.10;1.00;;;;;;4825201;29;20095;-60
2022/11/28 02:13:12;;;;;;;1.95;0.88;;;19.00;1.00;;;;;;4824856;29;20387;-60
2022/11/28 02:15:42;;;;;;;1.35;0.68;;;19.00;1.00;;;;;;4825045;29;20050;-60
2022/11/28 02:18:17;;;;;;;1.88;0.90;;;19.00;1.00;;;;;;4825194;29;20121;-60
2022/11/28 02:21:07;;;;;;;2.67;1.08;;;19.00;1.00;;;;;;4825061;29;20046;-60
2022/11/28 02:23:53;;;;;;;1.73;1.13;;;19.00;1.00;;;;;;4824922;29;20514;-60
2022/11/28 02:26:56;;;;;;;1.65;0.70;;;18.90;1.00;;;;;;4824967;29;20069;-60
2022/11/28 02:29:59;;;;;;;1.35;1.00;;;18.90;1.00;;;;;;4824972;29;20070;-60
2022/11/28 02:32:46;;;;;;;2.60;0.90;;;18.90;1.00;;;;;;4824528;29;20465;-60
2022/11/28 02:35:26;;;;;;;1.55;1.10;;;18.90;1.00;;;;;;4824915;29;20359;-59
2022/11/28 02:38:01;;;;;;;1.67;0.90;;;18.80;1.00;;;;;;4824837;29;20124;-59
2022/11/28 02:40:50;;;;;;;1.50;0.85;;;18.80;1.00;;;;;;4824644;29;20467;-59
2022/11/28 02:43:39;;;;;;;1.67;1.05;;;18.80;1.00;;;;;;4824232;29;20062;-60
2022/11/28 02:46:15;;;;;;;2.22;1.13;;;18.80;1.00;;;;;;4824688;29;20087;-60
2022/11/28 02:48:54;;;;;;;1.60;1.05;;;18.80;1.00;;;;;;4824671;29;20077;-59
2022/11/28 02:51:46;;;;;;;1.42;0.90;;;18.80;1.00;;;;;;4824450;29;20043;-60
2022/11/28 02:54:16;;;;;;;1.65;1.00;;;18.70;1.00;;;;;;4824309;29;20132;-58
2022/11/28 02:56:51;;;;;;;1.45;0.80;;;18.70;1.00;;;;;;4824576;29;20474;-59
2022/11/28 02:59:44;;;;;;;2.10;1.17;;;18.70;1.00;;;;;;4824416;29;20074;-59
2022/11/28 03:02:26;;;;;;;1.88;1.10;;;18.70;1.00;;;;;;4824135;29;20056;-59
2022/11/28 03:04:59;;;;;;;1.90;1.27;;;18.70;1.00;;;;;;4824433;29;20575;-59
2022/11/28 03:07:49;;;;;;;1.80;0.98;;;18.60;1.00;;;;;;4808259;29;20054;-59
2022/11/28 03:10:43;;;;;;;1.92;0.98;;;18.60;1.00;;;;;;4824176;29;20060;-59
2022/11/28 03:13:29;;;;;;;2.28;0.95;;;18.60;1.00;;;;;;4823926;29;20479;-59
2022/11/28 03:16:11;;;;;;;3.03;1.05;;;18.60;1.00;;;;;;4823980;29;20057;-60
2022/11/28 03:18:59;;;;;;;1.42;0.95;;;18.50;1.00;;;;;;4824203;29;20046;-59
2022/11/28 03:21:39;;;;;;;1.85;1.20;;;18.50;1.00;;;;;;4824216;29;20142;-59
2022/11/28 03:24:32;;;;;;;1.95;1.08;;;18.50;1.00;;;;;;4823779;29;20057;-59
2022/11/28 03:27:13;;;;;;;2.10;1.25;;;18.50;1.00;;;;;;4816398;29;20503;-59
2022/11/28 03:30:20;;;;;;;2.00;0.93;;;18.50;1.00;;;;;;4824035;29;20050;-59
2022/11/28 03:32:51;;;;;;;1.73;1.00;;;18.50;1.00;;;;;;4803005;29;20149;-59
2022/11/28 03:35:22;;;;;;;1.63;1.02;;;18.50;1.00;;;;;;4820552;29;20066;-59
2022/11/28 03:38:21;;;;;;;1.30;1.02;;;18.40;1.00;;;;;;4823984;29;20081;-59
2022/11/28 03:40:53;;;;;;;2.53;1.63;;;18.40;1.00;;;;;;4819430;29;20499;-58
2022/11/28 03:43:26;;;;;;;1.70;1.08;;;18.40;1.00;;;;;;4807377;29;20042;-59
2022/11/28 03:45:54;;;;;;;;;;;18.40;1.00;;;;;;4824313;29;20121;-59
2022/11/28 03:48:29;;;;;;;2.13;1.35;;;18.40;1.00;;;;;;4823880;29;19931;-59
2022/11/28 03:51:11;;;;;;;2.75;1.27;;;18.40;1.00;;;;;;4823566;29;20072;-59
2022/11/28 03:53:48;;;;;;;2.00;1.15;;;18.40;1.00;;;;;;4823289;29;20046;-59
2022/11/28 03:56:21;;;;;;;1.70;0.75;;;18.40;1.00;;;;;;4823763;29;20099;-59
2022/11/28 03:59:09;;;;;;;2.20;1.55;;;18.30;1.00;;;;;;4823584;29;20099;-59
2022/11/28 04:01:54;;;;;;;1.27;0.85;;;18.30;1.00;;;;;;4807226;29;20054;-59
2022/11/28 04:04:42;;;;;;;2.22;1.27;;;18.30;1.00;;;;;;4823274;29;20054;-59
2022/11/28 04:07:27;;;;;;;2.20;1.42;;;18.30;1.00;;;;;;4823366;29;20137;-59
2022/11/28 04:10:23;;;;;;;1.70;1.00;;;18.30;1.00;;;;;;4823409;29;20057;-59
2022/11/28 04:12:59;;;;;;;1.55;0.90;;;18.20;1.00;;;;;;4806170;29;20473;-59
2022/11/28 04:15:36;;;;;;;2.70;0.95;;;18.20;1.00;;;;;;4823261;29;20690;-59
2022/11/28 04:18:28;;;;;;;1.90;1.30;;;18.20;1.00;;;;;;4823398;29;20487;-59
2022/11/28 04:21:26;;;;;;;1.30;0.88;;;18.20;1.00;;;;;;4823315;29;20054;-59
2022/11/28 04:23:58;;;;;;;1.48;1.00;;;18.20;1.00;;;;;;4822400;29;20099;-59
2022/11/28 04:26:32;;;;;;;1.50;1.05;;;18.20;1.00;;;;;;4823303;29;20043;-59
2022/11/28 04:29:03;;;;;;;1.55;1.02;;;18.20;1.00;;;;;;4823153;29;20085;-58
2022/11/28 04:31:31;;;;;;;1.67;1.23;;;18.20;1.00;;;;;;4823188;29;20598;-59
2022/11/28 04:34:04;;;;;;;2.03;1.20;;;18.10;1.00;;;;;;4822969;29;20418;-59
2022/11/28 04:36:34;;;;;;;1.73;1.10;;;18.10;1.00;;;;;;4823193;29;20462;-58
2022/11/28 04:39:02;;;;;;;2.05;1.20;;;18.10;1.00;;;;;;4823105;29;20054;-59
2022/11/28 04:41:39;;;;;;;2.40;1.10;;;18.10;1.00;;;;;;4822868;29;20088;-60
2022/11/28 04:44:14;;;;;;;2.55;1.60;;;18.10;1.00;;;;;;4822691;29;20050;-59
2022/11/28 04:46:46;;;;;;;2.90;1.35;;;18.10;1.00;;;;;;4823052;29;20058;-59
2022/11/28 04:49:13;;;;;;;3.38;1.48;;;18.10;1.00;;;;;;4823030;29;20571;-59
2022/11/28 04:51:52;;;;;;;2.08;1.30;;;18.10;1.00;;;;;;4822674;29;20062;-59
2022/11/28 04:54:30;;;;;;;1.73;1.20;;;18.00;1.00;;;;;;4822718;29;20057;-59
2022/11/28 04:57:11;;;;;;;2.00;1.35;;;18.00;1.00;;;;;;4822874;29;20050;-59
2022/11/28 04:59:40;;;;;;;1.92;1.30;;;18.00;1.00;;;;;;4822887;29;20095;-59
2022/11/28 05:02:08;;;;;;;2.97;1.55;;;18.00;1.00;;;;;;4822598;29;20054;-59
2022/11/28 05:04:36;;;;;;;1.50;1.00;;;18.00;1.00;;;;;;4822879;29;20142;-59
2022/11/28 05:07:05;;;;;;;5.40;1.65;;;17.90;1.00;;;;;;4822763;29;20134;-59
2022/11/28 05:09:31;;;;;;;1.75;1.20;;;18.00;1.00;;;;;;4822703;29;20050;-60
2022/11/28 05:11:58;;;;;;;3.45;1.73;;;17.90;1.00;;;;;;4829402;29;20042;-60
2022/11/28 05:14:25;;;;;;;2.25;1.30;;;17.90;1.00;;;;;;4827519;29;20529;-59
2022/11/28 05:16:51;;;;;;;7.00;1.75;;;17.90;1.00;;;;;;4822103;29;20063;-60
2022/11/28 05:19:18;;;;;;;1.92;1.35;;;17.90;1.00;;;;;;4822717;29;20057;-60
2022/11/28 05:21:45;;;;;;;3.70;1.38;;;17.90;1.00;;;;;;4806335;29;20046;-59
2022/11/28 05:24:12;;;;;;;2.42;1.40;;;17.90;1.00;;;;;;4821835;29;20107;-60
2022/11/28 05:26:39;;;;;;;3.25;1.48;;;17.90;1.00;;;;;;4822391;29;20050;-56
2022/11/28 05:29:05;;;;;;;3.22;1.90;;;17.90;1.00;;;;;;4822680;29;20130;-59
2022/11/28 05:31:32;;;;;;;4.90;1.33;;;17.80;1.00;;;;;;4822282;29;20107;-59
2022/11/28 05:33:59;;;;;;;16.15;1.98;;;17.90;1.00;;;;;;4822282;29;20050;-60
2022/11/28 05:36:26;;;;;;;8.73;2.03;;;17.80;1.00;;;;;;4824321;29;20077;-60
2022/11/28 05:38:52;;;;;;;9.77;1.98;;;17.80;1.00;;;;;;4825044;29;20071;-60
2022/11/28 05:41:23;;;;;;;5.95;1.73;;;17.80;1.00;;;;;;4824877;29;20412;-60
2022/11/28 05:43:50;;;;;;;13.13;1.73;;;17.80;1.00;;;;;;4824365;29;20078;-59
2022/11/28 05:46:18;;;;;;;6.47;1.83;;;17.80;1.00;;;;;;4824921;29;20121;-60
2022/11/28 05:48:45;;;;;;;5.22;1.75;;;17.80;1.00;;;;;;4824824;29;20050;-59
2022/11/28 05:51:11;;;;;;;2.40;1.60;;;17.80;1.00;;;;;;4824666;29;20542;-60
2022/11/28 05:53:38;;;;;;;4.53;1.95;;;17.80;1.00;;;;;;4825297;29;20062;-60
2022/11/28 05:56:11;;;;;;;2.35;1.48;;;17.80;1.00;;;;;;4826354;29;20042;-61
2022/11/28 05:58:38;;;;;;;2.43;1.47;;;17.80;1.00;;;;;;4834146;29;20078;-60
2022/11/28 06:01:25;;;;;;;3.20;1.48;;;17.80;1.00;;;;;;4822266;29;20119;-60
2022/11/28 06:03:58;;;;;;;2.58;1.70;;;17.80;1.00;;;;;;4831907;29;20078;-60
2022/11/28 06:06:27;;;;;;;;;;;17.70;1.00;;;;;;4844070;29;20056;-60
2022/11/28 06:08:54;;;;;;;3.25;1.42;;;17.80;1.00;;;;;;4843514;29;19924;-60
2022/11/28 06:11:23;;;;;;;3.17;1.27;;;17.70;1.00;;;;;;4843554;29;20455;-60
2022/11/28 06:13:50;;;;;;;2.92;1.65;;;17.70;1.00;;;;;;4843161;29;20307;-60
2022/11/28 06:16:23;;;;;;;2.20;1.30;;;17.70;1.00;;;;;;4843403;29;20182;-60
2022/11/28 06:18:55;;;;;;;2.53;1.67;;;17.70;1.00;;;;;;4843641;29;20050;-60
2022/11/28 06:21:23;;;;;;;3.83;1.50;;;17.70;1.00;;;;;;4843317;29;20061;-60
2022/11/28 06:23:51;;;;;;;4.65;1.55;;;17.70;1.00;;;;;;4843110;29;20058;-60
2022/11/28 06:26:21;;;;;;;4.07;1.20;;;17.70;1.00;;;;;;4843396;29;20124;-60
2022/11/28 06:28:49;;;;;;;6.18;1.20;;;17.70;1.00;;;;;;4827048;29;20054;-60
2022/11/28 06:31:18;;;;;;;4.32;1.10;;;17.70;1.00;;;;;;4843183;29;20133;-60
2022/11/28 06:33:45;;;;;;;2.75;1.02;;;17.70;1.00;;;;;;4826623;29;20129;-60
2022/11/28 06:36:13;;;;;;;5.07;1.33;;;17.60;1.00;;;;;;4843071;29;20053;-60
2022/11/28 06:38:40;;;;;;;4.18;1.25;;;17.70;1.00;;;;;;4843260;29;20383;-60
2022/11/28 06:41:10;;;;;;;3.30;1.05;;;17.60;1.00;;;;;;4842993;29;20558;-60
2022/11/28 06:43:38;;;;;;;4.93;1.35;;;17.60;1.00;;;;;;4842735;29;20529;-60
2022/11/28 06:46:09;;;;;;;2.03;1.10;;;17.60;1.00;;;;;;4842445;29;20045;-60
2022/11/28 06:48:41;;;;;;;3.15;0.82;;;17.60;1.00;;;;;;4842971;29;20054;-60
2022/11/28 06:51:09;;;;;;;4.50;1.23;;;17.60;1.00;;;;;;4834062;29;20075;-60
2022/11/28 06:53:36;;;;;;;2.58;1.00;;;17.60;1.00;;;;;;4824227;29;20103;-60
2022/11/28 06:56:08;;;;;;;5.25;1.10;;;17.60;1.00;;;;;;4824485;29;20042;-60
2022/11/28 06:58:35;;;;;;;3.10;1.30;;;17.50;1.00;;;;;;4824455;29;20125;-60
2022/11/28 07:01:16;;;;;;;3.30;0.75;;;17.50;1.00;;;;;;4824500;29;20126;-59
2022/11/28 07:03:44;;;;;;;6.45;1.30;;;17.60;1.00;;;;;;4824304;29;20078;-60
2022/11/28 07:06:12;;;;;;;3.30;1.35;;;17.50;1.00;;;;;;4824224;29;20054;-60
2022/11/28 07:08:39;;;;;;;3.67;1.23;;;17.50;1.00;;;;;;4824389;29;20504;-60
2022/11/28 07:11:17;;;;;;;4.00;1.42;;;17.50;1.00;;;;;;4824183;29;20117;-60
2022/11/28 07:13:45;;;;;;;3.33;0.90;;;17.50;1.00;;;;;;4824002;29;20038;-60
2022/11/28 07:16:34;;;;;;;2.67;1.35;;;17.50;1.00;;;;;;4807867;29;20564;-60
2022/11/28 07:19:01;;;;;;;3.13;1.55;;;17.40;1.00;;;;;;4824102;29;20137;-59
2022/11/28 07:21:29;;;;;;;3.53;0.90;;;17.50;1.00;;;;;;4824171;29;20115;-60
2022/11/28 07:23:58;;;;;;;3.30;1.17;;;17.40;1.00;;;;;;4823816;29;20052;-60
2022/11/28 07:26:24;;;;;;;4.28;1.08;;;17.40;1.00;;;;;;4824045;29;20046;-59
2022/11/28 07:28:51;;;;;;;3.65;1.52;;;17.50;1.00;;;;;;4824138;29;20559;-59
2022/11/28 07:31:21;;;;;;;4.88;1.27;;;17.40;1.00;;;;;;4823925;29;20046;-59
2022/11/28 07:33:49;;;;;;;7.57;1.83;;;17.40;1.00;;;;;;4823532;29;20050;-59
2022/11/28 07:36:26;;;;;;;4.30;1.00;;;17.40;1.00;;;;;;4823841;29;20133;-59
2022/11/28 07:38:56;;;;;;;5.53;1.17;;;17.40;1.00;;;;;;4823998;29;20083;-59
2022/11/28 07:41:23;;;;;;;2.95;1.05;;;17.40;1.00;;;;;;4823763;29;20042;-59
2022/11/28 07:43:58;;;;;;;2.97;1.00;;;17.40;1.00;;;;;;4823421;29;20129;-59
2022/11/28 07:46:26;;;;;;;7.20;1.67;;;17.40;1.00;;;;;;4820959;29;20081;-59
2022/11/28 07:48:53;;;;;;;8.43;1.27;;;17.30;1.00;;;;;;4819549;29;20278;-59
2022/11/28 07:51:26;;;;;;;4.18;1.42;;;17.40;1.00;;;;;;4819645;29;20046;-59
2022/11/28 07:53:53;;;;;;;4.78;1.00;;;17.30;1.00;;;;;;4818747;29;20042;-60
2022/11/28 07:56:22;;;;;;;1.92;0.77;;;17.30;1.00;;;;;;4802255;29;20049;-60
2022/11/28 07:58:49;;;;;;;4.25;1.05;;;17.30;1.00;;;;;;4819216;29;20046;-60
2022/11/28 08:01:19;;;;;;;4.75;1.83;;;17.30;1.00;;;;;;4818641;29;20066;-60
2022/11/28 08:03:46;;;;;;;3.33;1.20;;;17.30;1.00;;;;;;4816855;29;20512;-59
2022/11/28 08:06:15;;;;;;;3.90;1.10;;;17.30;1.00;;;;;;4819293;29;20056;-58
2022/11/28 08:08:43;;;;;;;4.70;1.20;;;17.30;1.00;;;;;;4823476;29;20057;-59
2022/11/28 08:11:10;;;;;;;2.30;1.10;;;17.30;1.00;;;;;;4807078;29;20050;-59
2022/11/28 08:13:38;;;;;;;2.40;1.20;;;17.30;1.00;;;;;;4823258;29;20074;-58
2022/11/28 08:16:07;;;;;;;3.53;1.55;;;17.30;1.00;;;;;;4823130;29;20046;-58
2022/11/28 08:18:35;;;;;;;4.97;1.48;;;17.30;1.00;;;;;;4823319;29;20052;-58
2022/11/28 08:21:03;;;;;;;5.40;1.35;;;17.20;1.00;;;;;;4823474;29;20042;-58
2022/11/28 08:23:32;;;;;;;2.38;0.85;;;17.20;1.00;;;;;;4823064;29;20058;-58
2022/11/28 08:26:01;;;;;;;3.95;1.17;;;17.20;1.00;;;;;;4823034;29;20056;-59
2022/11/28 08:28:28;;;;;;;3.05;0.80;;;17.20;1.00;;;;;;4823268;29;20046;-57
2022/11/28 08:30:55;;;;;;;4.22;1.27;;;17.20;1.00;;;;;;4823136;29;20118;-58
2022/11/28 08:33:25;;;;;;;2.70;1.10;;;17.20;1.00;;;;;;4822709;29;20074;-58
2022/11/28 08:35:51;;;;;;;3.45;0.85;;;17.20;1.00;;;;;;4822994;29;20050;-59
2022/11/28 08:38:18;;;;;;;4.95;1.02;;;17.20;1.00;;;;;;4823307;29;20042;-58
2022/11/28 08:40:45;;;;;;;2.05;0.98;;;17.20;1.00;;;;;;4822864;29;20095;-58
2022/11/28 08:43:12;;;;;;;3.53;1.00;;;17.20;1.00;;;;;;4822538;29;20054;-58
2022/11/28 08:45:39;;;;;;;6.28;1.00;;;17.20;1.00;;;;;;4822896;29;20061;-58
2022/11/28 08:48:05;;;;;;;2.63;0.80;;;17.20;1.00;;;;;;4823100;29;20062;-58
2022/11/28 08:50:32;;;;;;;6.40;1.25;;;17.20;1.00;;;;;;4822807;29;20607;-58
2022/11/28 08:52:59;;;;;;;4.30;1.13;;;17.10;1.00;;;;;;4822485;29;20046;-59
2022/11/28 08:55:33;;;;;;;5.10;1.42;;;17.10;1.00;;;;;;4822746;29;20046;-59
2022/11/28 08:58:07;;;;;;;2.28;1.10;;;17.10;1.00;;;;;;4822852;29;20487;-59
2022/11/28 09:00:34;;;;;;;1.95;0.73;;;17.10;1.00;;;;;;4822986;29;20125;-59
2022/11/28 09:03:01;;;;;;;4.72;1.13;;;17.10;1.00;;;;;;4822515;29;20141;-59
2022/11/28 09:05:29;;;;;;;2.90;1.05;;;17.10;1.00;;;;;;4822760;29;20058;-59
2022/11/28 09:07:55;;;;;;;3.65;1.23;;;17.10;1.00;;;;;;4822538;29;20051;-59
2022/11/28 09:10:23;;;;;;;4.68;1.52;;;17.10;1.00;;;;;;4824953;29;20422;-59
2022/11/28 09:12:51;;;;;;;2.20;0.95;;;17.10;1.00;;;;;;4825843;29;20494;-59
2022/11/28 09:15:18;;;;;;;3.10;1.48;;;17.10;1.00;;;;;;4826194;29;20095;-59
2022/11/28 09:17:45;;;;;;;5.28;1.10;;;17.10;1.00;;;;;;4809992;29;20115;-59
2022/11/28 09:20:12;;;;;;;3.50;1.42;;;17.10;1.00;;;;;;4826027;29;20448;-59
2022/11/28 09:22:41;;;;;;;2.17;0.95;;;17.10;1.00;;;;;;4825758;29;20137;-59
2022/11/28 09:25:08;;;;;;;3.50;0.90;;;17.10;1.00;;;;;;4825986;29;20054;-59
2022/11/28 09:27:34;;;;;;;3.60;1.33;;;17.10;1.00;;;;;;4826023;29;20046;-59
2022/11/28 09:30:01;;;;;;;2.90;0.95;;;17.10;1.00;;;;;;4825740;29;20054;-59
2022/11/28 09:32:28;;;;;;;4.57;1.10;;;17.10;1.00;;;;;;4825258;29;20522;-59
2022/11/28 09:34:55;;;;;;;6.47;1.08;;;17.10;1.00;;;;;;4825882;29;20042;-59
2022/11/28 09:37:21;;;;;;;5.20;1.60;;;17.00;1.00;;;;;;4825329;29;20530;-59
2022/11/28 09:39:49;;;;;;;2.42;1.05;;;17.00;1.00;;;;;;4825746;29;20074;-60
2022/11/28 09:42:42;;;;;;;3.88;1.13;;;17.00;1.00;;;;;;4825150;29;20129;-60
2022/11/28 09:45:18;;;;;;;3.47;0.82;;;17.00;1.00;;;;;;4825657;29;20081;-60
2022/11/28 09:48:07;;;;;;;5.25;1.33;;;17.00;1.00;;;;;;4825468;29;20047;-60
2022/11/28 09:50:38;;;;;;;2.33;0.88;;;17.00;1.00;;;;;;4818817;29;20140;-60
2022/11/28 09:53:40;;;;;;;5.43;1.10;;;17.00;1.00;;;;;;4825191;29;20517;-60
2022/11/28 09:56:12;;;;;;;3.88;1.00;;;17.00;1.00;;;;;;4825319;29;20046;-60
2022/11/28 09:58:47;;;;;;;6.13;1.15;;;17.00;1.00;;;;;;4825475;29;20054;-60
2022/11/28 10:01:31;;;;;;;4.60;1.48;;;16.90;1.00;;;;;;4825403;29;20121;-59
2022/11/28 10:04:27;;;;;;;4.63;1.40;;;16.90;1.00;;;;;;4825018;29;20054;-60
2022/11/28 10:07:05;;;;;;;5.93;1.00;;;17.00;1.00;;;;;;4825155;29;20046;-60
2022/11/28 10:09:45;;;;;;;2.30;1.40;;;16.90;1.00;;;;;;4825351;29;20112;-60
2022/11/28 10:12:31;;;;;;;2.25;0.65;;;16.90;1.00;;;;;;4824864;29;20115;-60
2022/11/28 10:15:09;;;;;;;0.85;0.47;;;16.90;1.00;;;;;;4825211;29;20513;-60
2022/11/28 10:18:05;;;;;;;3.50;1.95;;;16.90;1.00;;;;;;4825370;29;20081;-60
2022/11/28 10:20:40;;;;;;;4.18;0.70;;;16.90;1.00;;;;;;4806820;29;20561;-60
2022/11/28 10:23:20;;;;;;;3.90;1.40;;;16.90;1.00;;;;;;4824465;29;20046;-60
2022/11/28 10:26:01;;;;;;;2.05;0.95;;;16.90;1.00;;;;;;4825008;29;20054;-59
2022/11/28 10:28:37;;;;;;;3.40;0.90;;;16.90;1.00;;;;;;4825042;29;20049;-59
2022/11/28 10:31:29;;;;;;;3.00;1.23;;;16.90;1.00;;;;;;4824840;29;20053;-59
2022/11/28 10:34:15;;;;;;;3.15;1.00;;;16.90;1.00;;;;;;4821410;29;20054;-60
2022/11/28 10:36:54;;;;;;;2.58;0.85;;;16.90;1.00;;;;;;4824816;29;20053;-59
2022/11/28 10:39:21;;;;;;;2.83;0.95;;;16.90;1.00;;;;;;4824984;29;20554;-59
2022/11/28 10:42:10;;;;;;;4.32;1.33;;;16.90;1.00;;;;;;4824451;29;20053;-59
2022/11/28 10:44:58;;;;;;;5.25;1.10;;;16.90;1.00;;;;;;4824703;29;20133;-59
2022/11/28 10:47:25;;;;;;;4.50;1.30;;;16.90;1.00;;;;;;4808241;29;20470;-59
2022/11/28 10:50:01;;;;;;;1.80;1.00;;;16.90;1.00;;;;;;4824662;29;20130;-59
2022/11/28 10:52:54;;;;;;;4.75;1.10;;;16.90;1.00;;;;;;4805951;29;20043;-59
2022/11/28 10:55:45;;;;;;;4.00;1.02;;;16.90;1.00;;;;;;4806282;29;20129;-59
2022/11/28 10:58:43;;;;;;;3.42;1.20;;;16.80;1.00;;;;;;4806413;29;20530;-59
2022/11/28 11:01:11;;;;;;;1.88;0.68;;;16.80;1.00;;;;;;4806244;29;20047;-59
2022/11/28 11:03:38;;;;;;;2.30;0.60;;;16.80;1.00;;;;;;4806047;29;20057;-59
2022/11/28 11:06:06;;;;;;;4.35;0.95;;;16.80;1.00;;;;;;4806100;29;20103;-60
2022/11/28 11:08:35;;;;;;;1.90;0.80;;;16.90;1.00;;;;;;4806368;29;20442;-60
2022/11/28 11:11:06;;;;;;;3.10;1.25;;;16.80;1.00;;;;;;4806008;29;20515;-60
2022/11/28 11:13:53;;;;;;;4.25;1.13;;;16.90;1.00;;;;;;4805834;29;20046;-60
2022/11/28 11:16:20;;;;;;;3.47;1.13;;;16.90;1.00;;;;;;4806118;29;20096;-60
2022/11/28 11:18:47;;;;;;;2.90;1.20;;;16.80;1.00;;;;;;4806062;29;20091;-60
2022/11/28 11:21:20;;;;;;;3.00;1.10;;;16.80;1.00;;;;;;4805988;29;20046;-60
2022/11/28 11:23:48;;;;;;;2.97;0.88;;;16.80;1.00;;;;;;4805747;29;20129;-60
2022/11/28 11:26:26;;;;;;;4.47;1.08;;;16.80;1.00;;;;;;4805810;29;20388;-60
2022/11/28 11:28:53;;;;;;;4.05;1.10;;;16.80;1.00;;;;;;4805949;29;20051;-59
2022/11/28 11:31:50;;;;;;;4.03;1.20;;;16.80;1.00;;;;;;4805727;29;20047;-60
2022/11/28 11:34:18;;;;;;;4.63;1.38;;;16.80;1.00;;;;;;4804613;29;20071;-59
2022/11/28 11:36:45;;;;;;;4.15;1.10;;;16.80;1.00;;;;;;4805658;29;20126;-59
2022/11/28 11:39:12;;;;;;;4.60;1.08;;;16.80;1.00;;;;;;4805679;29;20415;-60
2022/11/28 11:41:40;;;;;;;3.53;1.23;;;16.80;1.00;;;;;;4805467;29;20050;-59
2022/11/28 11:44:28;;;;;;;4.70;1.40;;;16.80;1.00;;;;;;4804919;29;20125;-59
2022/11/28 11:47:03;;;;;;;6.65;1.38;;;16.80;1.00;;;;;;4805602;29;20078;-59
2022/11/28 11:49:36;;;;;;;4.70;1.00;;;16.80;1.00;;;;;;4805595;29;20503;-60
2022/11/28 11:52:11;;;;;;;4.97;1.20;;;16.80;1.00;;;;;;4820636;29;20502;-59
2022/11/28 11:54:58;;;;;;;2.80;1.33;;;16.80;1.00;;;;;;4823453;29;20042;-59
2022/11/28 11:57:39;;;;;;;2.40;1.13;;;16.80;1.00;;;;;;4823552;29;20075;-59
2022/11/28 12:00:15;;;;;;;3.35;1.00;;;16.80;1.00;;;;;;4823483;29;20044;-60
2022/11/28 12:02:50;;;;;;;3.42;0.77;;;16.80;1.00;;;;;;4823423;29;20047;-59
2022/11/28 12:05:23;;;;;;;3.03;1.10;;;16.80;1.00;;;;;;4823476;29;20057;-60
2022/11/28 12:07:59;;;;;;;2.33;0.90;;;16.80;1.00;;;;;;4823602;29;20448;-60
2022/11/28 12:10:31;;;;;;;3.42;1.25;;;16.80;1.00;;;;;;4823431;29;20117;-60
2022/11/28 12:12:57;;;;;;;5.32;1.45;;;16.80;1.00;;;;;;4823189;29;20050;-59
2022/11/28 12:15:55;;;;;;;4.45;1.45;;;16.80;1.00;;;;;;4823905;29;20065;-60
2022/11/28 12:18:26;;;;;;;3.00;0.95;;;16.80;1.00;;;;;;4823420;29;20050;-60
2022/11/28 12:21:24;;;;;;;5.72;1.60;;;16.80;1.00;;;;;;4806992;29;20049;-60
2022/11/28 12:24:05;;;;;;;5.55;1.20;;;16.80;1.00;;;;;;4823478;29;20050;-60
2022/11/28 12:26:47;;;;;;;3.45;0.93;;;16.80;1.00;;;;;;4823120;29;20145;-60
2022/11/28 12:29:41;;;;;;;3.60;1.02;;;16.80;1.00;;;;;;4823223;29;20572;-60
2022/11/28 12:32:26;;;;;;;5.85;1.35;;;16.80;1.00;;;;;;4822722;29;20519;-60
2022/11/28 12:35:20;;;;;;;2.85;1.52;;;16.80;1.00;;;;;;4823133;29;20069;-59
2022/11/28 12:38:22;;;;;;;7.20;1.10;;;16.80;1.00;;;;;;4823120;29;20069;-59
2022/11/28 12:40:56;;;;;;;4.60;1.35;;;16.80;1.00;;;;;;4820175;29;20460;-60
2022/11/28 12:43:42;;;;;;;4.63;1.10;;;16.80;1.00;;;;;;4822735;29;20050;-60
2022/11/28 12:46:18;;;;;;;3.47;1.10;;;16.80;1.00;;;;;;4822862;29;20091;-59
2022/11/28 12:49:13;;;;;;;5.80;1.00;;;16.80;1.00;;;;;;4823004;29;20410;-60
2022/11/28 12:52:09;;;;;;;4.82;0.85;;;16.80;1.00;;;;;;4822870;29;20141;-59
2022/11/28 12:54:42;;;;;;;3.75;0.65;;;16.80;1.00;;;;;;4822848;29;20380;-59
2022/11/28 12:57:25;;;;;;;4.75;0.68;;;16.80;1.00;;;;;;4822806;29;20056;-60
2022/11/28 13:00:01;;;;;;;5.95;1.40;;;16.80;1.00;;;;;;4822840;29;20046;-59
2022/11/28 13:02:58;;;;;;;2.83;0.90;;;16.80;1.00;;;;;;4822464;29;20522;-59
2022/11/28 13:06:10;;;;;;;3.60;0.90;;;16.80;1.00;;;;;;4822823;29;20050;-59
2022/11/28 13:08:42;;;;;;;4.05;1.00;;;16.80;1.00;;;;;;4822708;29;20074;-59
2022/11/28 13:11:26;;;;;;;3.58;1.35;;;16.70;1.00;;;;;;4822810;29;20046;-59
2022/11/28 13:14:21;;;;;;;3.00;1.02;;;16.80;1.00;;;;;;4822188;29;20087;-59
2022/11/28 13:16:54;;;;;;;1.27;0.57;;;16.80;1.00;;;;;;4822561;29;20047;-59
2022/11/28 13:19:40;;;;;;;5.30;1.42;;;16.80;1.00;;;;;;4822731;29;20087;-59
2022/11/28 13:22:38;;;;;;;4.63;1.33;;;16.80;1.00;;;;;;4822413;29;20079;-59
2022/11/28 13:25:36;;;;;;;4.07;0.90;;;16.70;1.00;;;;;;4819740;29;20057;-59
2022/11/28 13:28:30;;;;;;;7.75;1.05;;;16.80;1.00;;;;;;4823011;29;20547;-59
2022/11/28 13:31:11;;;;;;;7.03;1.52;;;16.80;1.00;;;;;;4822505;29;20130;-59
2022/11/28 13:33:49;;;;;;;4.10;1.45;;;16.80;1.00;;;;;;4822110;29;20046;-59
2022/11/28 13:36:37;;;;;;;2.75;0.95;;;16.80;1.00;;;;;;4822341;29;20509;-59